Time;durP1;ratioP1;P1;durP2;ratioP2;P2;SDS_P1;SDS_P2;PMS_P1;PMS_P2;Temp;Humidity;BMP_temperature;BMP_pressure;BME280_temperature;BME280_humidity;BME280_pressure;Samples;Min_cycle;Max_cycle;Signal;HPM_P1;HPM_P2
2022/11/21 00:00:31;;;;;;;32.45;17.58;;;1.10;45.60;;;;;;5030323;28;20153;-79
2022/11/21 00:03:00;;;;;;;30.48;17.95;;;1.00;44.90;;;;;;5044847;28;20037;-78
2022/11/21 00:05:29;;;;;;;34.20;19.10;;;1.00;43.80;;;;;;5029035;28;20044;-78
2022/11/21 00:07:56;;;;;;;39.13;21.65;;;0.90;43.50;;;;;;5046620;28;20044;-78
2022/11/21 00:10:22;;;;;;;36.20;20.15;;;0.90;45.30;;;;;;5045660;28;20084;-79
2022/11/21 00:12:55;;;;;;;31.58;18.92;;;0.90;46.10;;;;;;5013415;28;20049;-78
2022/11/21 00:15:21;;;;;;;35.03;20.60;;;0.90;47.90;;;;;;5039953;28;20041;-78
2022/11/21 00:17:46;;;;;;;34.60;19.60;;;0.90;49.90;;;;;;5043452;28;20134;-78
2022/11/21 00:20:12;;;;;;;37.00;20.83;;;1.00;52.10;;;;;;5036264;28;20503;-81
2022/11/21 00:22:38;;;;;;;34.20;20.25;;;1.00;52.40;;;;;;5033175;28;20052;-79
2022/11/21 00:25:04;;;;;;;32.97;18.67;;;1.10;51.10;;;;;;5023479;28;20045;-79
2022/11/21 00:27:30;;;;;;;35.22;18.27;;;1.00;50.60;;;;;;5032172;28;20506;-79
2022/11/21 00:29:55;;;;;;;35.80;19.13;;;1.00;49.70;;;;;;5024134;28;20050;-83
2022/11/21 00:32:21;;;;;;;50.88;26.42;;;1.00;52.30;;;;;;5011558;28;20045;-79
2022/11/21 00:34:47;;;;;;;35.00;20.63;;;1.00;54.30;;;;;;5040336;28;20049;-81
2022/11/21 00:37:12;;;;;;;41.38;20.38;;;1.00;53.50;;;;;;5029852;28;20049;-81
2022/11/21 00:39:38;;;;;;;37.08;20.23;;;1.00;52.10;;;;;;5040562;28;20099;-79
2022/11/21 00:42:03;;;;;;;41.20;23.23;;;0.90;53.30;;;;;;5047239;28;20049;-80
2022/11/21 00:44:29;;;;;;;46.08;25.38;;;0.90;51.80;;;;;;5043797;28;20041;-79
2022/11/21 00:46:55;;;;;;;38.28;21.15;;;0.80;52.20;;;;;;5017937;28;20037;-79
2022/11/21 00:49:20;;;;;;;50.45;25.58;;;0.80;52.30;;;;;;5050561;28;20624;-78
2022/11/21 00:51:46;;;;;;;42.47;22.83;;;0.80;53.00;;;;;;5022901;28;20056;-79
2022/11/21 00:54:12;;;;;;;44.08;22.25;;;0.70;54.00;;;;;;5046080;28;20554;-80
2022/11/21 00:56:37;;;;;;;38.28;20.52;;;0.70;54.90;;;;;;5034512;28;20048;-80
2022/11/21 00:59:03;;;;;;;39.30;21.95;;;0.60;55.10;;;;;;5050931;28;20056;-79
2022/11/21 01:01:29;;;;;;;35.13;18.83;;;0.60;55.00;;;;;;5030051;28;20053;-80
2022/11/21 01:03:56;;;;;;;36.45;20.33;;;0.50;54.10;;;;;;5052375;28;20094;-79
2022/11/21 01:06:21;;;;;;;35.50;20.20;;;0.40;55.60;;;;;;5048715;28;20040;-80
2022/11/21 01:08:47;;;;;;;35.10;20.83;;;0.30;54.80;;;;;;5040974;28;20064;-78
2022/11/21 01:11:16;;;;;;;36.25;19.48;;;0.30;54.70;;;;;;5046867;28;20048;-79
2022/11/21 01:13:42;;;;;;;33.28;18.70;;;0.30;55.90;;;;;;5049142;28;20052;-81
2022/11/21 01:16:14;;;;;;;37.40;19.70;;;0.30;58.20;;;;;;5038253;28;20489;-78
2022/11/21 01:18:41;;;;;;;39.65;22.00;;;0.20;58.20;;;;;;5049498;28;20054;-78
2022/11/21 01:21:22;;;;;;;38.90;21.63;;;0.20;58.60;;;;;;5053680;28;20405;-81
2022/11/21 01:23:48;;;;;;;37.15;20.10;;;0.20;61.10;;;;;;5052012;28;20464;-79
2022/11/21 01:26:19;;;;;;;38.42;20.90;;;0.20;62.60;;;;;;5039033;28;20452;-79
2022/11/21 01:28:45;;;;;;;39.30;20.20;;;0.20;63.80;;;;;;5049385;28;20036;-78
2022/11/21 01:31:14;;;;;;;39.03;21.30;;;0.20;65.20;;;;;;5045842;28;20047;-78
2022/11/21 01:33:40;;;;;;;38.95;21.42;;;0.30;67.60;;;;;;5049067;28;20095;-78
2022/11/21 01:36:18;;;;;;;36.88;20.35;;;0.20;66.10;;;;;;5047795;28;20087;-84
2022/11/21 01:38:49;;;;;;;39.80;21.13;;;0.20;66.00;;;;;;5042079;28;20068;-79
2022/11/21 01:41:17;;;;;;;41.58;21.95;;;0.10;64.00;;;;;;5055780;28;20405;-83
2022/11/21 01:43:43;;;;;;;34.15;19.58;;;0.00;63.40;;;;;;5048403;28;20059;-83
2022/11/21 01:46:09;;;;;;;39.28;20.98;;;-0.10;59.70;;;;;;5033028;28;20045;-78
2022/11/21 01:48:43;;;;;;;43.47;22.60;;;-0.20;57.90;;;;;;5062239;28;20048;-78
2022/11/21 01:51:41;;;;;;;38.63;20.52;;;-0.40;56.80;;;;;;5048296;28;20040;-77
2022/11/21 01:54:15;;;;;;;36.58;19.90;;;-0.50;74.70;;;;;;5049787;28;20121;-84
2022/11/21 01:57:18;;;;;;;37.60;20.48;;;-0.70;60.50;;;;;;5045784;28;20488;-80
2022/11/21 01:59:50;;;;;;;39.90;21.63;;;-0.70;60.00;;;;;;5020089;28;20053;-78
2022/11/21 02:02:20;;;;;;;42.17;20.77;;;-0.80;63.80;;;;;;5040162;28;20069;-77
2022/11/21 02:04:47;;;;;;;39.10;20.63;;;-0.90;64.80;;;;;;5042334;28;20049;-80
2022/11/21 02:07:16;;;;;;;42.95;21.55;;;-0.90;70.10;;;;;;5049587;28;20049;-78
2022/11/21 02:09:45;;;;;;;42.70;21.35;;;-1.00;72.60;;;;;;5045636;28;20050;-82
2022/11/21 02:12:18;;;;;;;48.65;22.40;;;-1.10;73.50;;;;;;5043686;28;20355;-82
2022/11/21 02:14:43;;;;;;;44.05;22.38;;;-0.90;95.40;;;;;;5049566;28;20063;-81
2022/11/21 02:17:10;;;;;;;43.20;22.45;;;-0.70;96.50;;;;;;5048438;28;20044;-85
2022/11/21 02:19:38;;;;;;;43.47;23.35;;;-0.70;90.70;;;;;;5048234;28;20084;-78
2022/11/21 02:22:13;;;;;;;47.08;23.13;;;-0.80;80.60;;;;;;5048456;28;20057;-78
2022/11/21 02:25:06;;;;;;;44.58;22.50;;;-0.90;73.30;;;;;;5049065;28;20073;-79
2022/11/21 02:27:32;;;;;;;44.83;23.20;;;-0.90;68.10;;;;;;5050012;28;20605;-80
2022/11/21 02:29:58;;;;;;;47.70;23.27;;;-1.00;64.30;;;;;;5049813;28;20076;-79
2022/11/21 02:32:31;;;;;;;45.20;22.45;;;-1.00;60.90;;;;;;5045107;28;20111;-80
2022/11/21 02:34:56;;;;;;;46.20;22.13;;;-1.10;59.80;;;;;;5046961;28;20049;-78
2022/11/21 02:37:22;;;;;;;44.33;22.48;;;-1.10;59.00;;;;;;5052398;28;20040;-79
2022/11/21 02:39:48;;;;;;;51.22;24.67;;;-1.10;59.10;;;;;;5033058;28;20131;-78
2022/11/21 02:42:14;;;;;;;45.92;23.45;;;-1.20;58.30;;;;;;5033371;28;20053;-85
2022/11/21 02:44:52;;;;;;;48.95;24.42;;;-1.30;59.80;;;;;;5032972;28;20095;-78
2022/11/21 02:47:20;;;;;;;48.92;23.33;;;-1.30;55.30;;;;;;5036684;28;20045;-79
2022/11/21 02:50:09;;;;;;;48.72;23.58;;;-1.40;52.90;;;;;;5035567;28;20561;-78
2022/11/21 02:52:35;;;;;;;45.42;22.40;;;-1.50;53.80;;;;;;5061311;28;20118;-78
2022/11/21 02:55:00;;;;;;;47.35;22.20;;;-1.60;56.50;;;;;;5052988;28;20040;-78
2022/11/21 02:57:26;;;;;;;48.95;24.08;;;-1.60;59.20;;;;;;5029682;28;20048;-78
2022/11/21 02:59:51;;;;;;;47.30;23.20;;;-1.60;62.70;;;;;;5049112;28;20045;-79
2022/11/21 03:02:17;;;;;;;46.75;24.15;;;-1.70;66.30;;;;;;5032396;28;20049;-84
2022/11/21 03:04:44;;;;;;;44.83;23.20;;;-1.70;71.40;;;;;;5031616;28;20045;-78
2022/11/21 03:07:09;;;;;;;50.80;23.55;;;-1.80;77.10;;;;;;5048972;28;20510;-78
2022/11/21 03:09:35;;;;;;;51.67;25.38;;;-1.80;80.10;;;;;;5019356;28;20082;-78
2022/11/21 03:12:08;;;;;;;51.15;24.20;;;-1.60;84.40;;;;;;5041927;28;20064;-78
2022/11/21 03:14:35;;;;;;;51.63;25.27;;;-1.80;86.30;;;;;;5053016;28;20436;-78
2022/11/21 03:17:03;;;;;;;48.70;23.85;;;-1.80;89.40;;;;;;5035586;28;20041;-79
2022/11/21 03:19:29;;;;;;;46.00;22.65;;;-1.80;91.70;;;;;;5051741;28;20080;-80
2022/11/21 03:21:55;;;;;;;50.78;23.95;;;-1.80;93.90;;;;;;5047038;28;20371;-78
2022/11/21 03:24:20;;;;;;;56.95;25.65;;;-1.70;95.30;;;;;;5031232;28;20110;-84
2022/11/21 03:26:46;;;;;;;49.72;24.23;;;-1.70;96.80;;;;;;5036328;28;20044;-78
2022/11/21 03:29:12;;;;;;;47.42;22.33;;;-1.70;97.90;;;;;;5049208;28;20045;-81
2022/11/21 03:31:37;;;;;;;48.58;23.45;;;-1.70;99.20;;;;;;5014164;28;20056;-80
2022/11/21 03:34:03;;;;;;;46.95;22.77;;;-1.80;99.50;;;;;;5043144;28;20303;-79
2022/11/21 03:36:29;;;;;;;49.50;23.45;;;-1.80;99.90;;;;;;5023574;28;20084;-81
2022/11/21 03:38:58;;;;;;;45.33;21.65;;;-1.80;99.90;;;;;;5047228;28;20033;-78
2022/11/21 03:41:30;;;;;;;46.42;23.00;;;-1.90;99.90;;;;;;5047760;28;20051;-84
2022/11/21 03:43:56;;;;;;;44.35;21.38;;;-1.90;99.90;;;;;;5042988;28;20041;-78
2022/11/21 03:46:22;;;;;;;52.00;23.75;;;-1.90;99.90;;;;;;5039904;28;20556;-84
2022/11/21 03:48:47;;;;;;;45.08;23.40;;;-1.90;99.90;;;;;;5050379;28;20056;-82
2022/11/21 03:51:13;;;;;;;51.33;23.38;;;-1.90;99.90;;;;;;5049363;28;20264;-79
2022/11/21 03:53:39;;;;;;;52.10;24.00;;;-1.90;99.90;;;;;;5047611;28;20101;-80
2022/11/21 03:56:04;;;;;;;50.42;23.98;;;-2.00;99.90;;;;;;5049068;28;20069;-78
2022/11/21 03:58:30;;;;;;;49.10;23.95;;;-2.00;99.90;;;;;;5030016;28;20053;-78
2022/11/21 04:00:55;;;;;;;49.97;23.80;;;-2.10;99.90;;;;;;5049488;28;20363;-78
2022/11/21 04:03:21;;;;;;;50.60;23.08;;;-2.10;99.90;;;;;;5050800;28;20041;-81
2022/11/21 04:05:47;;;;;;;47.25;23.55;;;-2.00;99.90;;;;;;5051013;28;20049;-78
2022/11/21 04:08:12;;;;;;;48.75;24.13;;;-2.10;99.90;;;;;;5054710;28;20106;-78
2022/11/21 04:10:38;;;;;;;51.45;24.58;;;-2.10;99.90;;;;;;5052410;28;20186;-78
2022/11/21 04:13:04;;;;;;;52.70;22.92;;;-2.10;99.90;;;;;;5057492;28;20064;-79
2022/11/21 04:15:29;;;;;;;47.72;23.55;;;-2.20;99.90;;;;;;5057024;28;20447;-79
2022/11/21 04:17:55;;;;;;;49.63;22.70;;;-2.20;99.90;;;;;;5047957;28;21359;-78
2022/11/21 04:20:23;;;;;;;49.70;23.85;;;-2.20;99.90;;;;;;5049388;28;20129;-78
2022/11/21 04:22:49;;;;;;;52.65;24.05;;;-2.30;99.90;;;;;;5048055;28;20056;-79
2022/11/21 04:25:15;;;;;;;55.90;24.25;;;-2.30;99.90;;;;;;5045250;28;20386;-80
2022/11/21 04:27:40;;;;;;;51.45;24.83;;;-2.30;99.90;;;;;;5050617;28;20402;-78
2022/11/21 04:30:06;;;;;;;51.33;23.75;;;-2.30;99.90;;;;;;5050524;28;20115;-78
2022/11/21 04:32:32;;;;;;;51.40;24.55;;;-2.40;99.90;;;;;;5050608;28;20060;-80
2022/11/21 04:34:58;;;;;;;52.85;24.35;;;-2.40;99.20;;;;;;5042909;28;20057;-78
2022/11/21 04:37:23;;;;;;;49.90;24.08;;;-2.40;99.90;;;;;;5048501;28;20049;-79
2022/11/21 04:39:49;;;;;;;50.13;22.80;;;-2.30;99.90;;;;;;5045189;28;20292;-79
2022/11/21 04:42:14;;;;;;;49.03;23.25;;;-2.30;99.90;;;;;;5053276;28;20044;-78
2022/11/21 04:44:40;;;;;;;51.72;23.88;;;-2.30;99.90;;;;;;5050482;28;20064;-78
2022/11/21 04:47:06;;;;;;;44.83;22.92;;;-2.30;99.90;;;;;;5049396;28;20079;-78
2022/11/21 04:49:31;;;;;;;51.80;23.27;;;-2.40;99.70;;;;;;5046191;28;20173;-83
2022/11/21 04:51:57;;;;;;;52.15;23.50;;;-2.50;98.70;;;;;;5018947;28;20127;-79
2022/11/21 04:54:23;;;;;;;47.83;22.92;;;-2.50;99.10;;;;;;5030954;28;20100;-80
2022/11/21 04:56:48;;;;;;;48.53;24.23;;;-2.50;99.90;;;;;;5015710;28;20394;-79
2022/11/21 04:59:14;;;;;;;49.33;24.50;;;-2.50;99.90;;;;;;5037625;28;20497;-79
2022/11/21 05:01:39;;;;;;;50.92;22.85;;;-2.50;99.90;;;;;;5032150;28;20048;-79
2022/11/21 05:04:05;;;;;;;54.95;24.17;;;-2.60;97.80;;;;;;5050622;28;20066;-78
2022/11/21 05:06:31;;;;;;;54.00;24.00;;;-2.60;96.80;;;;;;5027741;28;20042;-79
2022/11/21 05:08:56;;;;;;;52.03;23.17;;;-2.60;94.30;;;;;;5043124;28;20048;-78
2022/11/21 05:14:06;;;;;;;52.97;24.92;;;-2.50;95.70;;;;;;5049113;28;20044;-79
2022/11/21 05:16:32;;;;;;;51.30;24.70;;;-2.50;96.10;;;;;;5047934;28;20041;-80
2022/11/21 05:18:58;;;;;;;56.50;24.55;;;-2.50;95.30;;;;;;5045590;28;20140;-79
2022/11/21 05:21:24;;;;;;;58.60;25.23;;;-2.50;93.00;;;;;;5050953;28;20128;-79
2022/11/21 05:23:49;;;;;;;56.15;24.92;;;-2.60;92.30;;;;;;5048564;28;20055;-79
2022/11/21 05:26:15;;;;;;;58.08;25.23;;;-2.60;92.00;;;;;;5049994;28;20041;-79
2022/11/21 05:28:40;;;;;;;56.30;25.80;;;-2.60;92.00;;;;;;5048873;28;20527;-78
2022/11/21 05:31:06;;;;;;;61.97;27.38;;;-2.60;92.40;;;;;;5038718;28;20490;-77
2022/11/21 05:33:32;;;;;;;60.17;26.00;;;-2.50;92.40;;;;;;5049132;28;20049;-79
2022/11/21 05:35:57;;;;;;;54.25;25.23;;;-2.60;90.90;;;;;;5043815;28;20493;-82
2022/11/21 05:38:23;;;;;;;53.78;25.45;;;-2.60;86.90;;;;;;5045049;28;20635;-77
2022/11/21 05:40:51;;;;;;;50.70;25.30;;;-2.60;88.30;;;;;;5045523;28;20045;-80
2022/11/21 05:46:01;;;;;;;51.40;24.73;;;-2.70;86.30;;;;;;5048328;28;20053;-78
2022/11/21 05:48:27;;;;;;;57.65;26.63;;;-2.70;85.80;;;;;;5048981;28;20082;-81
2022/11/21 05:50:52;;;;;;;56.13;26.30;;;-2.70;85.30;;;;;;5046633;28;20048;-81
2022/11/21 05:53:18;;;;;;;58.55;25.77;;;-2.70;85.10;;;;;;5046454;28;20049;-79
2022/11/21 05:55:45;;;;;;;58.22;27.23;;;-2.70;84.70;;;;;;5048631;28;20052;-81
2022/11/21 05:58:10;;;;;;;62.80;27.88;;;-2.50;85.20;;;;;;5047984;28;20037;-79
2022/11/21 06:00:37;;;;;;;64.13;28.98;;;-2.70;88.20;;;;;;5055160;28;20045;-79
2022/11/21 06:05:47;;;;;;;67.13;30.52;;;-2.60;92.10;;;;;;5046833;28;20088;-82
2022/11/21 06:08:13;;;;;;;73.05;30.08;;;-2.50;96.00;;;;;;5041687;28;20081;-79
2022/11/21 06:10:38;;;;;;;73.18;30.23;;;-2.50;97.50;;;;;;5050235;28;20060;-81
2022/11/21 06:13:20;;;;;;;65.97;29.08;;;-2.40;99.40;;;;;;5053192;28;20048;-79
2022/11/21 06:16:07;;;;;;;71.20;30.95;;;-2.40;99.90;;;;;;5018133;28;20053;-79
2022/11/21 06:18:35;;;;;;;73.10;31.25;;;-2.30;99.90;;;;;;5055890;28;20060;-80
2022/11/21 06:21:23;;;;;;;73.10;33.00;;;-2.30;99.90;;;;;;5052090;28;20127;-78
2022/11/21 06:23:51;;;;;;;70.38;31.65;;;-2.30;99.90;;;;;;5058722;28;20055;-78
2022/11/21 06:26:19;;;;;;;76.22;33.15;;;-2.40;99.90;;;;;;5041445;28;20041;-78
2022/11/21 06:28:45;;;;;;;65.60;30.30;;;-2.30;99.90;;;;;;5046459;28;20067;-85
2022/11/21 06:31:23;;;;;;;69.47;30.60;;;-2.30;99.90;;;;;;5049361;28;20631;-79
2022/11/21 06:33:53;;;;;;;75.20;32.55;;;-2.30;99.90;;;;;;5033736;28;20140;-80
2022/11/21 06:36:19;;;;;;;76.32;31.52;;;-2.30;99.90;;;;;;5031457;28;20444;-78
2022/11/21 06:38:45;;;;;;;76.20;33.58;;;-2.30;99.90;;;;;;5050896;28;20123;-79
2022/11/21 06:41:22;;;;;;;77.20;33.10;;;-2.30;99.90;;;;;;5049776;28;20052;-78
2022/11/21 06:43:48;;;;;;;73.85;31.00;;;-2.10;99.90;;;;;;5054937;28;20131;-84
2022/11/21 06:46:15;;;;;;;77.85;32.83;;;-2.40;99.90;;;;;;5065416;28;20131;-79
2022/11/21 06:48:42;;;;;;;76.60;32.95;;;-2.40;99.90;;;;;;5064908;28;20041;-78
2022/11/21 06:51:20;;;;;;;75.97;33.55;;;-2.40;99.90;;;;;;5047509;28;20629;-80
2022/11/21 06:53:47;;;;;;;71.93;31.38;;;-2.40;99.30;;;;;;5046780;28;20056;-78
2022/11/21 06:56:14;;;;;;;69.60;30.98;;;-2.50;97.40;;;;;;5048650;28;20096;-81
2022/11/21 06:58:39;;;;;;;72.70;32.55;;;-2.50;96.70;;;;;;5053222;28;20041;-78
2022/11/21 07:01:07;;;;;;;66.22;29.15;;;-2.50;98.50;;;;;;5047617;28;20110;-79
2022/11/21 07:03:33;;;;;;;67.25;30.38;;;-2.50;99.90;;;;;;5048216;28;20048;-79
2022/11/21 07:06:00;;;;;;;64.07;28.45;;;-2.50;99.90;;;;;;5056319;28;20186;-78
2022/11/21 07:08:30;;;;;;;74.00;30.67;;;-2.60;99.90;;;;;;5035134;28;20432;-78
2022/11/21 07:11:01;;;;;;;69.80;30.95;;;-2.60;99.00;;;;;;5050254;28;20041;-78
2022/11/21 07:13:27;;;;;;;67.07;29.55;;;-2.60;96.60;;;;;;5029733;28;20045;-78
2022/11/21 07:15:54;;;;;;;68.88;29.90;;;-2.70;95.50;;;;;;5032366;28;20056;-84
2022/11/21 07:18:21;;;;;;;83.45;36.28;;;-2.70;94.50;;;;;;5058384;28;20037;-78
2022/11/21 07:20:47;;;;;;;73.75;31.83;;;-2.80;94.40;;;;;;5026934;28;20525;-78
2022/11/21 07:23:14;;;;;;;74.95;31.50;;;-2.70;96.90;;;;;;5045800;28;20616;-78
2022/11/21 07:25:40;;;;;;;71.47;32.47;;;-2.70;97.80;;;;;;5038333;28;20399;-79
2022/11/21 07:28:06;;;;;;;68.75;31.60;;;-2.60;97.80;;;;;;5033010;28;20098;-78
2022/11/21 07:30:33;;;;;;;79.68;33.75;;;-2.70;96.40;;;;;;5049861;28;20671;-79
2022/11/21 07:33:01;;;;;;;76.40;32.88;;;-2.70;95.80;;;;;;5046938;28;20048;-78
2022/11/21 07:35:27;;;;;;;74.20;33.97;;;-2.70;94.40;;;;;;5048422;28;20094;-78
2022/11/21 07:37:53;;;;;;;78.10;34.85;;;-2.80;93.50;;;;;;5056174;28;20521;-81
2022/11/21 07:40:19;;;;;;;77.40;34.45;;;-2.80;92.30;;;;;;5049306;28;20049;-78
2022/11/21 07:42:45;;;;;;;75.15;32.78;;;-2.80;92.40;;;;;;5048607;28;20132;-78
2022/11/21 07:45:13;;;;;;;71.10;31.08;;;-2.80;93.50;;;;;;5046998;28;20037;-78
2022/11/21 07:47:38;;;;;;;74.68;33.65;;;-2.80;95.10;;;;;;5032009;28;20063;-78
2022/11/21 07:50:05;;;;;;;78.53;34.05;;;-2.70;95.60;;;;;;5048448;28;20056;-78
2022/11/21 07:52:31;;;;;;;77.78;32.20;;;-2.70;97.30;;;;;;5048337;28;20558;-77
2022/11/21 07:54:57;;;;;;;70.53;31.85;;;-2.60;99.90;;;;;;5062144;28;20124;-82
2022/11/21 07:57:23;;;;;;;74.50;31.35;;;-2.50;99.90;;;;;;5048326;28;20059;-79
2022/11/21 07:59:49;;;;;;;76.65;32.75;;;-2.40;99.90;;;;;;5050316;28;20064;-78
2022/11/21 08:02:23;;;;;;;75.75;32.35;;;-2.30;99.90;;;;;;5058499;28;20041;-78
2022/11/21 08:04:49;;;;;;;76.90;32.65;;;-2.30;99.90;;;;;;5048076;28;20083;-78
2022/11/21 08:07:15;;;;;;;80.03;32.78;;;-2.30;99.90;;;;;;5031566;28;20073;-79
2022/11/21 08:09:42;;;;;;;79.43;32.55;;;-2.20;99.90;;;;;;5064653;28;20705;-78
2022/11/21 08:12:09;;;;;;;75.93;34.28;;;-2.20;99.90;;;;;;5056325;28;20049;-78
2022/11/21 08:14:35;;;;;;;80.07;33.47;;;-2.20;99.90;;;;;;5047894;28;20084;-78
2022/11/21 08:17:01;;;;;;;80.43;33.97;;;-2.20;99.90;;;;;;5047668;28;20049;-82
2022/11/21 08:19:27;;;;;;;74.30;32.03;;;-2.20;99.90;;;;;;5044138;28;20075;-77
2022/11/21 08:21:53;;;;;;;78.75;33.75;;;-2.10;99.90;;;;;;5049341;28;20061;-79
2022/11/21 08:24:18;;;;;;;75.13;32.95;;;-2.20;99.90;;;;;;5048599;28;20154;-79
2022/11/21 08:26:44;;;;;;;75.35;32.70;;;-2.10;99.90;;;;;;5041806;28;20045;-78
2022/11/21 08:29:11;;;;;;;68.45;32.47;;;-2.10;99.90;;;;;;5027711;28;20121;-78
2022/11/21 08:31:37;;;;;;;73.55;33.38;;;-2.00;99.90;;;;;;5054972;28;20504;-78
2022/11/21 08:34:03;;;;;;;73.10;33.03;;;-2.00;99.90;;;;;;5051176;28;20072;-84
2022/11/21 08:36:29;;;;;;;72.22;31.98;;;-2.00;99.90;;;;;;5047958;28;20502;-78
2022/11/21 08:38:57;;;;;;;76.18;31.65;;;-2.00;99.90;;;;;;5047575;28;20047;-78
2022/11/21 08:44:07;;;;;;;80.38;38.47;;;-1.90;99.90;;;;;;5034330;28;20494;-78
2022/11/21 08:46:36;;;;;;;94.47;42.08;;;-1.80;99.90;;;;;;5035572;28;20053;-82
2022/11/21 08:49:02;;;;;;;97.70;45.42;;;-1.70;99.90;;;;;;5032360;28;20077;-78
2022/11/21 08:51:28;;;;;;;88.78;40.45;;;-1.60;99.90;;;;;;5032168;28;20156;-78
2022/11/21 08:53:54;;;;;;;88.25;39.42;;;-1.30;99.90;;;;;;5032296;28;20081;-78
2022/11/21 08:56:19;;;;;;;72.57;34.00;;;-1.00;99.90;;;;;;5015302;28;20042;-78
2022/11/21 08:58:45;;;;;;;67.28;34.15;;;-0.70;99.90;;;;;;5015803;28;20041;-78
2022/11/21 09:01:11;;;;;;;68.90;33.83;;;-0.50;99.90;;;;;;5032407;28;20048;-79
2022/11/21 09:03:36;;;;;;;68.32;32.60;;;-0.30;99.90;;;;;;5031753;28;20049;-78
2022/11/21 09:06:02;;;;;;;65.68;32.92;;;-0.10;99.90;;;;;;5014652;28;20049;-80
2022/11/21 09:08:29;;;;;;;72.03;33.45;;;0.00;99.90;;;;;;5048538;28;20040;-80
2022/11/21 09:10:54;;;;;;;65.22;32.53;;;0.20;99.90;;;;;;5037077;28;20067;-79
2022/11/21 09:13:20;;;;;;;61.47;32.28;;;0.30;99.90;;;;;;5022854;28;20116;-79
2022/11/21 09:18:30;;;;;;;65.20;32.30;;;0.40;99.90;;;;;;5017182;28;20491;-78
2022/11/21 09:20:56;;;;;;;64.55;33.95;;;0.40;99.90;;;;;;5045880;28;20045;-78
2022/11/21 09:23:22;;;;;;;60.17;30.02;;;0.50;99.90;;;;;;5032086;28;20041;-81
2022/11/21 09:25:48;;;;;;;60.80;29.77;;;0.50;99.90;;;;;;5046949;28;20049;-80
2022/11/21 09:28:14;;;;;;;63.75;30.88;;;0.50;99.90;;;;;;5046770;28;20052;-79
2022/11/21 09:30:41;;;;;;;62.63;31.70;;;0.50;99.90;;;;;;5051985;28;20047;-79
2022/11/21 09:33:10;;;;;;;61.20;31.10;;;0.60;99.90;;;;;;5050421;28;20041;-78
2022/11/21 09:35:35;;;;;;;60.45;30.30;;;0.60;99.90;;;;;;5050806;28;20049;-79
2022/11/21 09:38:01;;;;;;;59.22;30.05;;;0.60;99.90;;;;;;5050479;28;20041;-79
2022/11/21 09:40:31;;;;;;;63.55;30.45;;;0.60;99.90;;;;;;5033359;28;20051;-79
2022/11/21 09:43:01;;;;;;;61.78;30.65;;;0.70;99.90;;;;;;5040383;28;20095;-79
2022/11/21 09:45:33;;;;;;;61.45;29.35;;;0.70;99.90;;;;;;5047938;28;20110;-79
2022/11/21 09:48:03;;;;;;;60.15;29.95;;;0.70;99.90;;;;;;5050568;28;20053;-80
2022/11/21 09:50:52;;;;;;;60.42;30.52;;;0.80;99.90;;;;;;5036908;28;20053;-81
2022/11/21 09:53:32;;;;;;;59.80;30.88;;;0.80;99.90;;;;;;5049882;28;20052;-79
2022/11/21 09:56:25;;;;;;;60.03;30.58;;;0.80;99.90;;;;;;5041181;28;20037;-80
2022/11/21 09:59:29;;;;;;;54.47;27.83;;;0.90;99.90;;;;;;5035151;28;20513;-79
2022/11/21 10:01:55;;;;;;;56.83;28.40;;;1.00;99.90;;;;;;5016009;28;20057;-80
2022/11/21 10:04:21;;;;;;;59.22;30.23;;;1.00;99.90;;;;;;5015665;28;20384;-81
2022/11/21 10:06:58;;;;;;;59.65;30.48;;;1.00;99.90;;;;;;5035372;28;20159;-80
2022/11/21 10:10:00;;;;;;;55.83;28.13;;;1.10;99.90;;;;;;5029798;28;20493;-79
2022/11/21 10:13:04;;;;;;;54.58;28.73;;;1.20;99.90;;;;;;5047334;28;20080;-79
2022/11/21 10:15:42;;;;;;;55.90;29.58;;;1.20;99.90;;;;;;5030549;28;20119;-79
2022/11/21 10:18:32;;;;;;;50.00;27.38;;;1.30;99.90;;;;;;5047559;28;20111;-80
2022/11/21 10:21:27;;;;;;;46.25;25.38;;;1.40;99.90;;;;;;5015939;28;20475;-80
2022/11/21 10:24:18;;;;;;;51.97;27.08;;;1.40;99.90;;;;;;5026761;28;20068;-82
2022/11/21 10:27:10;;;;;;;52.00;27.00;;;1.50;99.90;;;;;;5050231;28;20061;-79
2022/11/21 10:29:49;;;;;;;48.53;26.63;;;1.50;99.90;;;;;;5049142;28;20099;-79
2022/11/21 10:32:24;;;;;;;46.53;25.92;;;1.60;99.90;;;;;;5050966;28;20044;-80
2022/11/21 10:34:54;;;;;;;47.80;26.17;;;1.70;99.90;;;;;;5062195;28;20087;-80
2022/11/21 10:37:36;;;;;;;48.90;27.63;;;1.70;99.90;;;;;;5050186;28;20067;-79
2022/11/21 10:40:32;;;;;;;45.33;25.65;;;1.70;99.90;;;;;;5062381;28;20066;-77
2022/11/21 10:46:07;;;;;;;46.95;27.27;;;1.90;99.90;;;;;;5046842;28;20510;-78
2022/11/21 10:48:33;;;;;;;48.80;27.10;;;1.90;99.90;;;;;;5033795;28;20051;-79
2022/11/21 10:51:05;;;;;;;45.08;26.08;;;2.10;99.90;;;;;;5049606;28;20052;-78
2022/11/21 10:56:21;;;;;;;41.40;23.85;;;2.20;99.90;;;;;;5056455;28;20061;-80
2022/11/21 10:58:49;;;;;;;46.08;24.90;;;2.50;99.90;;;;;;5062372;28;20113;-78
2022/11/21 11:01:24;;;;;;;38.45;22.80;;;2.50;99.90;;;;;;5034634;28;20148;-78
2022/11/21 11:04:08;;;;;;;39.63;22.80;;;2.60;99.90;;;;;;5029261;28;20053;-78
2022/11/21 11:06:38;;;;;;;39.55;22.48;;;2.70;99.90;;;;;;5042365;28;20111;-78
2022/11/21 11:09:05;;;;;;;41.13;23.13;;;2.80;99.90;;;;;;5030538;28;20089;-78
2022/11/21 11:11:32;;;;;;;36.35;22.40;;;3.00;99.90;;;;;;5048418;28;20056;-78
2022/11/21 11:14:02;;;;;;;41.67;23.17;;;3.10;99.90;;;;;;5050127;28;20140;-81
2022/11/21 11:16:30;;;;;;;35.97;20.75;;;3.30;99.90;;;;;;5029649;28;20073;-79
2022/11/21 11:19:09;;;;;;;36.03;20.23;;;3.40;99.90;;;;;;5030015;28;20547;-78
2022/11/21 11:21:40;;;;;;;32.67;19.58;;;3.40;99.90;;;;;;5012798;28;20075;-79
2022/11/21 11:24:09;;;;;;;30.88;18.75;;;3.50;99.90;;;;;;5041023;28;20091;-78
2022/11/21 11:26:57;;;;;;;33.70;19.27;;;3.60;99.90;;;;;;5030031;28;20124;-78
2022/11/21 11:29:30;;;;;;;31.30;19.10;;;3.70;99.90;;;;;;5028952;28;20045;-79
2022/11/21 11:32:17;;;;;;;28.65;17.13;;;3.80;99.90;;;;;;5028633;28;20107;-78
2022/11/21 11:35:11;;;;;;;32.45;17.70;;;3.80;96.80;;;;;;5042839;28;20111;-81
2022/11/21 11:37:39;;;;;;;25.92;15.75;;;3.80;91.00;;;;;;5050000;28;20045;-78
2022/11/21 11:40:20;;;;;;;28.98;17.33;;;3.70;79.60;;;;;;5049361;28;20076;-79
2022/11/21 11:48:49;;;;;;;28.70;16.50;;;3.80;45.40;;;;;;5061230;28;20684;-79
2022/11/21 11:51:26;;;;;;;27.33;16.75;;;3.80;38.80;;;;;;5036408;28;20057;-79
2022/11/21 11:53:56;;;;;;;29.13;16.45;;;3.80;23.50;;;;;;5028722;28;20041;-82
2022/11/21 11:56:35;;;;;;;30.40;17.45;;;3.90;16.90;;;;;;5029073;28;20045;-79
2022/11/21 11:59:10;;;;;;;30.40;17.67;;;3.80;15.90;;;;;;5038562;28;20041;-78
2022/11/21 12:01:41;;;;;;;28.25;16.98;;;3.90;16.80;;;;;;5052244;28;20040;-78
2022/11/21 12:04:17;;;;;;;27.35;17.10;;;3.90;1.60;;;;;;5057135;28;20049;-78
2022/11/21 12:06:51;;;;;;;29.40;17.60;;;3.90;1.00;;;;;;5035287;28;20060;-79
2022/11/21 12:09:38;;;;;;;29.08;17.52;;;3.80;1.00;;;;;;5033758;28;20057;-78
2022/11/21 12:12:17;;;;;;;26.95;17.08;;;3.80;1.00;;;;;;5028844;28;20232;-78
2022/11/21 12:18:14;;;;;;;29.38;18.40;;;3.80;1.00;;;;;;5027568;28;20547;-78
2022/11/21 12:21:15;;;;;;;31.45;16.77;;;3.70;1.00;;;;;;4975679;28;20080;-79
2022/11/21 12:23:46;;;;;;;31.52;17.13;;;3.70;1.00;;;;;;5036057;28;20057;-79
2022/11/21 12:26:36;;;;;;;28.30;16.48;;;3.70;1.00;;;;;;5035205;28;20042;-78
2022/11/21 12:29:04;;;;;;;27.05;16.52;;;3.80;1.00;;;;;;5044788;28;20116;-80
2022/11/21 12:32:05;;;;;;;29.75;16.85;;;3.70;1.00;;;;;;5051881;28;20464;-79
2022/11/21 12:34:52;;;;;;;25.17;15.25;;;3.70;1.00;;;;;;5047521;28;20057;-80
2022/11/21 12:37:45;;;;;;;27.20;15.13;;;3.80;1.00;;;;;;5025389;28;20132;-84
2022/11/21 12:40:49;;;;;;;26.08;15.70;;;3.70;1.00;;;;;;5052869;28;20131;-79
2022/11/21 12:43:42;;;;;;;22.05;13.85;;;3.80;1.00;;;;;;5041097;28;20056;-79
2022/11/21 12:46:08;;;;;;;24.83;14.30;;;3.80;1.00;;;;;;5051197;28;20049;-80
2022/11/21 12:55:10;;;;;;;25.10;14.80;;;3.80;1.00;;;;;;5031295;28;20613;-79
2022/11/21 12:57:53;;;;;;;25.33;15.40;;;3.90;1.00;;;;;;5032778;28;20060;-86
2022/11/21 13:00:31;;;;;;;24.35;14.93;;;3.90;1.00;;;;;;5031756;28;20053;-81
2022/11/21 13:03:40;;;;;;;24.70;15.18;;;3.90;1.00;;;;;;5038292;28;20227;-78
2022/11/21 13:06:22;;;;;;;26.60;15.82;;;3.80;1.00;;;;;;5039910;28;20041;-78
2022/11/21 13:08:51;;;;;;;24.92;15.60;;;3.80;1.00;;;;;;5031382;28;20080;-81
2022/11/21 13:14:17;;;;;;;29.27;17.38;;;3.80;1.00;;;;;;5039080;28;20079;-78
2022/11/21 13:16:49;;;;;;;30.73;17.60;;;3.90;1.00;;;;;;5037673;28;20041;-79
2022/11/21 13:19:18;;;;;;;27.10;17.00;;;3.80;1.00;;;;;;5038106;28;20053;-80
2022/11/21 13:21:46;;;;;;;30.77;17.30;;;3.90;1.00;;;;;;5050260;28;20049;-80
2022/11/21 13:24:44;;;;;;;28.48;17.52;;;3.90;1.00;;;;;;5048808;28;20057;-79
2022/11/21 13:27:40;;;;;;;30.23;17.55;;;3.90;1.00;;;;;;5040454;28;20045;-79